sensor_id;sensor_type;location;lat;lon;timestamp;P1;P4;P2;P0;N10;N4;N25;N1;N05;TS
84740;SPS30;74970;47.924;13.802;2024-03-06T00:02:13;18.7;;18.7;17.8;;;;;;
84740;SPS30;74970;47.924;13.802;2024-03-06T00:07:13;17.5;;17.6;16.6;;;;;;
84740;SPS30;74970;47.924;13.802;2024-03-06T00:12:13;17.3;;17.3;16.5;;;;;;
84740;SPS30;74970;47.924;13.802;2024-03-06T00:17:13;15.7;;16.0;14.7;;;;;;
84740;SPS30;74970;47.924;13.802;2024-03-06T00:22:13;16.3;;16.6;15.4;;;;;;
84740;SPS30;74970;47.924;13.802;2024-03-06T00:27:13;16.3;;16.3;15.5;;;;;;
84740;SPS30;74970;47.924;13.802;2024-03-06T00:32:13;16.6;;16.6;15.8;;;;;;
84740;SPS30;74970;47.924;13.802;2024-03-06T00:37:13;15.0;;15.0;14.3;;;;;;
84740;SPS30;74970;47.924;13.802;2024-03-06T00:42:13;16.4;;16.8;15.4;;;;;;
84740;SPS30;74970;47.924;13.802;2024-03-06T00:47:13;16.6;;16.6;15.8;;;;;;
84740;SPS30;74970;47.924;13.802;2024-03-06T00:52:13;14.4;;14.6;13.6;;;;;;
84740;SPS30;74970;47.924;13.802;2024-03-06T00:57:13;13.5;;13.5;12.8;;;;;;
84740;SPS30;74970;47.924;13.802;2024-03-06T01:02:13;13.3;;13.3;12.7;;;;;;
84740;SPS30;74970;47.924;13.802;2024-03-06T01:07:13;14.3;;14.7;13.4;;;;;;
84740;SPS30;74970;47.924;13.802;2024-03-06T01:12:13;18.2;;18.2;17.3;;;;;;
84740;SPS30;74970;47.924;13.802;2024-03-06T01:17:13;18.9;;19.2;17.8;;;;;;
84740;SPS30;74970;47.924;13.802;2024-03-06T01:22:13;18.0;;18.2;17.0;;;;;;
84740;SPS30;74970;47.924;13.802;2024-03-06T01:27:13;21.5;;21.8;20.3;;;;;;
84740;SPS30;74970;47.924;13.802;2024-03-06T01:32:13;22.0;;22.3;20.8;;;;;;
84740;SPS30;74970;47.924;13.802;2024-03-06T01:37:13;20.6;;21.1;19.3;;;;;;
84740;SPS30;74970;47.924;13.802;2024-03-06T01:42:13;21.8;;22.3;20.4;;;;;;
84740;SPS30;74970;47.924;13.802;2024-03-06T01:47:13;19.9;;19.9;19.0;;;;;;
84740;SPS30;74970;47.924;13.802;2024-03-06T01:52:13;19.9;;19.9;18.9;;;;;;
84740;SPS30;74970;47.924;13.802;2024-03-06T01:57:13;18.3;;18.6;17.2;;;;;;
84740;SPS30;74970;47.924;13.802;2024-03-06T02:02:13;19.0;;19.0;18.1;;;;;;
84740;SPS30;74970;47.924;13.802;2024-03-06T02:07:13;19.3;;19.9;18.0;;;;;;
84740;SPS30;74970;47.924;13.802;2024-03-06T02:12:13;19.4;;19.7;18.2;;;;;;
84740;SPS30;74970;47.924;13.802;2024-03-06T02:17:13;18.9;;18.9;18.0;;;;;;
84740;SPS30;74970;47.924;13.802;2024-03-06T02:22:13;18.7;;19.0;17.7;;;;;;
84740;SPS30;74970;47.924;13.802;2024-03-06T02:27:13;16.8;;16.8;16.0;;;;;;
84740;SPS30;74970;47.924;13.802;2024-03-06T02:32:13;18.2;;18.2;17.3;;;;;;
84740;SPS30;74970;47.924;13.802;2024-03-06T02:37:13;18.9;;19.3;17.7;;;;;;
84740;SPS30;74970;47.924;13.802;2024-03-06T02:42:13;17.9;;17.9;17.0;;;;;;
84740;SPS30;74970;47.924;13.802;2024-03-06T02:47:13;19.4;;19.8;18.1;;;;;;
84740;SPS30;74970;47.924;13.802;2024-03-06T02:52:13;19.8;;19.9;18.8;;;;;;
84740;SPS30;74970;47.924;13.802;2024-03-06T02:57:13;20.0;;20.1;19.1;;;;;;
84740;SPS30;74970;47.924;13.802;2024-03-06T03:02:13;19.7;;19.8;18.7;;;;;;
84740;SPS30;74970;47.924;13.802;2024-03-06T03:07:13;20.4;;20.4;19.4;;;;;;
84740;SPS30;74970;47.924;13.802;2024-03-06T03:12:13;19.8;;19.9;18.7;;;;;;
84740;SPS30;74970;47.924;13.802;2024-03-06T03:17:13;19.7;;20.3;18.4;;;;;;
84740;SPS30;74970;47.924;13.802;2024-03-06T03:22:13;19.9;;20.3;18.7;;;;;;
84740;SPS30;74970;47.924;13.802;2024-03-06T03:27:13;20.1;;20.7;18.6;;;;;;
84740;SPS30;74970;47.924;13.802;2024-03-06T03:32:13;20.1;;20.1;19.1;;;;;;
84740;SPS30;74970;47.924;13.802;2024-03-06T03:37:13;17.9;;18.0;17.1;;;;;;
84740;SPS30;74970;47.924;13.802;2024-03-06T03:42:13;17.7;;18.0;16.6;;;;;;
84740;SPS30;74970;47.924;13.802;2024-03-06T03:47:13;17.9;;18.1;16.9;;;;;;
84740;SPS30;74970;47.924;13.802;2024-03-06T03:52:13;18.5;;18.9;17.4;;;;;;
84740;SPS30;74970;47.924;13.802;2024-03-06T03:57:13;17.9;;18.0;17.1;;;;;;
84740;SPS30;74970;47.924;13.802;2024-03-06T04:02:13;17.1;;17.4;16.1;;;;;;
84740;SPS30;74970;47.924;13.802;2024-03-06T04:07:13;15.5;;15.6;14.8;;;;;;
84740;SPS30;74970;47.924;13.802;2024-03-06T04:12:13;15.4;;15.4;14.7;;;;;;
84740;SPS30;74970;47.924;13.802;2024-03-06T04:17:13;16.0;;16.3;15.0;;;;;;
84740;SPS30;74970;47.924;13.802;2024-03-06T04:22:13;16.5;;16.5;15.7;;;;;;
84740;SPS30;74970;47.924;13.802;2024-03-06T04:27:13;16.5;;16.9;15.4;;;;;;
84740;SPS30;74970;47.924;13.802;2024-03-06T04:32:13;17.0;;17.4;15.9;;;;;;
84740;SPS30;74970;47.924;13.802;2024-03-06T04:37:13;17.2;;17.3;16.4;;;;;;
84740;SPS30;74970;47.924;13.802;2024-03-06T04:42:13;17.8;;18.1;16.7;;;;;;
84740;SPS30;74970;47.924;13.802;2024-03-06T04:47:13;19.1;;19.5;17.9;;;;;;
84740;SPS30;74970;47.924;13.802;2024-03-06T04:52:13;18.1;;18.4;17.1;;;;;;
84740;SPS30;74970;47.924;13.802;2024-03-06T04:57:13;19.8;;19.8;18.8;;;;;;
84740;SPS30;74970;47.924;13.802;2024-03-06T05:02:13;21.4;;21.8;20.1;;;;;;
84740;SPS30;74970;47.924;13.802;2024-03-06T05:07:13;20.4;;20.4;19.5;;;;;;
84740;SPS30;74970;47.924;13.802;2024-03-06T05:12:13;20.5;;21.0;19.2;;;;;;
84740;SPS30;74970;47.924;13.802;2024-03-06T05:17:13;20.4;;20.6;19.2;;;;;;
84740;SPS30;74970;47.924;13.802;2024-03-06T05:22:13;24.9;;25.5;23.4;;;;;;
84740;SPS30;74970;47.924;13.802;2024-03-06T05:27:13;22.1;;22.1;21.1;;;;;;
84740;SPS30;74970;47.924;13.802;2024-03-06T05:32:13;21.9;;22.0;20.9;;;;;;
84740;SPS30;74970;47.924;13.802;2024-03-06T05:37:13;21.3;;21.5;20.2;;;;;;
84740;SPS30;74970;47.924;13.802;2024-03-06T05:42:13;22.9;;23.0;21.7;;;;;;
84740;SPS30;74970;47.924;13.802;2024-03-06T05:47:13;21.8;;21.9;20.7;;;;;;
84740;SPS30;74970;47.924;13.802;2024-03-06T05:52:13;24.5;;25.1;22.8;;;;;;
84740;SPS30;74970;47.924;13.802;2024-03-06T05:57:13;27.2;;27.9;25.4;;;;;;
84740;SPS30;74970;47.924;13.802;2024-03-06T06:02:13;28.2;;29.1;26.3;;;;;;
84740;SPS30;74970;47.924;13.802;2024-03-06T06:07:13;25.1;;25.5;23.6;;;;;;
84740;SPS30;74970;47.924;13.802;2024-03-06T06:12:13;25.6;;26.2;23.9;;;;;;
84740;SPS30;74970;47.924;13.802;2024-03-06T06:17:13;26.3;;26.9;24.7;;;;;;
84740;SPS30;74970;47.924;13.802;2024-03-06T06:22:13;28.4;;28.6;26.9;;;;;;
84740;SPS30;74970;47.924;13.802;2024-03-06T06:27:13;25.7;;25.7;24.5;;;;;;
84740;SPS30;74970;47.924;13.802;2024-03-06T06:32:13;27.5;;27.9;25.8;;;;;;
84740;SPS30;74970;47.924;13.802;2024-03-06T06:37:13;26.1;;26.7;24.3;;;;;;
84740;SPS30;74970;47.924;13.802;2024-03-06T06:42:13;26.8;;27.2;25.2;;;;;;
84740;SPS30;74970;47.924;13.802;2024-03-06T06:47:13;26.9;;27.3;25.3;;;;;;
84740;SPS30;74970;47.924;13.802;2024-03-06T06:52:13;27.3;;27.6;25.8;;;;;;
84740;SPS30;74970;47.924;13.802;2024-03-06T06:57:13;26.7;;26.8;25.5;;;;;;
84740;SPS30;74970;47.924;13.802;2024-03-06T07:02:13;26.9;;27.3;25.3;;;;;;
84740;SPS30;74970;47.924;13.802;2024-03-06T07:07:13;28.2;;28.6;26.6;;;;;;
84740;SPS30;74970;47.924;13.802;2024-03-06T07:12:13;26.5;;26.8;25.1;;;;;;
84740;SPS30;74970;47.924;13.802;2024-03-06T07:17:13;27.7;;27.7;26.4;;;;;;
84740;SPS30;74970;47.924;13.802;2024-03-06T07:22:13;25.6;;25.8;24.3;;;;;;
84740;SPS30;74970;47.924;13.802;2024-03-06T07:27:13;27.3;;27.7;25.8;;;;;;
84740;SPS30;74970;47.924;13.802;2024-03-06T07:32:13;27.3;;27.6;25.7;;;;;;
84740;SPS30;74970;47.924;13.802;2024-03-06T07:37:13;27.9;;28.7;26.1;;;;;;
84740;SPS30;74970;47.924;13.802;2024-03-06T07:42:13;28.1;;28.2;26.7;;;;;;
84740;SPS30;74970;47.924;13.802;2024-03-06T07:47:13;28.8;;29.0;27.2;;;;;;
84740;SPS30;74970;47.924;13.802;2024-03-06T07:52:13;29.7;;30.3;27.9;;;;;;
84740;SPS30;74970;47.924;13.802;2024-03-06T07:57:13;28.7;;29.3;26.9;;;;;;
84740;SPS30;74970;47.924;13.802;2024-03-06T08:02:13;30.8;;31.1;29.2;;;;;;
84740;SPS30;74970;47.924;13.802;2024-03-06T08:07:13;30.1;;30.8;28.0;;;;;;
84740;SPS30;74970;47.924;13.802;2024-03-06T08:12:13;30.4;;30.6;28.8;;;;;;
84740;SPS30;74970;47.924;13.802;2024-03-06T08:17:13;24.9;;24.9;23.7;;;;;;
84740;SPS30;74970;47.924;13.802;2024-03-06T08:22:13;25.6;;25.7;24.2;;;;;;
84740;SPS30;74970;47.924;13.802;2024-03-06T08:27:13;26.6;;26.6;25.3;;;;;;
84740;SPS30;74970;47.924;13.802;2024-03-06T08:32:13;32.9;;33.6;30.9;;;;;;
84740;SPS30;74970;47.924;13.802;2024-03-06T08:37:13;33.3;;33.5;31.7;;;;;;
84740;SPS30;74970;47.924;13.802;2024-03-06T08:42:13;34.1;;35.0;31.9;;;;;;
84740;SPS30;74970;47.924;13.802;2024-03-06T08:47:13;36.6;;37.7;34.0;;;;;;
84740;SPS30;74970;47.924;13.802;2024-03-06T08:52:13;35.7;;36.5;33.5;;;;;;
84740;SPS30;74970;47.924;13.802;2024-03-06T08:57:13;32.6;;33.4;30.5;;;;;;
84740;SPS30;74970;47.924;13.802;2024-03-06T09:02:14;34.0;;34.9;31.7;;;;;;
84740;SPS30;74970;47.924;13.802;2024-03-06T09:07:13;28.4;;28.8;26.8;;;;;;
84740;SPS30;74970;47.924;13.802;2024-03-06T09:12:13;33.4;;33.5;31.8;;;;;;
84740;SPS30;74970;47.924;13.802;2024-03-06T09:17:13;36.8;;38.1;34.1;;;;;;
84740;SPS30;74970;47.924;13.802;2024-03-06T09:22:13;36.7;;37.6;34.3;;;;;;
84740;SPS30;74970;47.924;13.802;2024-03-06T09:27:13;36.4;;37.3;34.1;;;;;;
84740;SPS30;74970;47.924;13.802;2024-03-06T09:32:13;34.2;;34.2;32.6;;;;;;
84740;SPS30;74970;47.924;13.802;2024-03-06T09:37:13;34.4;;35.6;32.0;;;;;;
84740;SPS30;74970;47.924;13.802;2024-03-06T09:42:13;34.5;;35.1;32.5;;;;;;
84740;SPS30;74970;47.924;13.802;2024-03-06T09:47:13;33.7;;34.1;31.9;;;;;;
84740;SPS30;74970;47.924;13.802;2024-03-06T09:52:13;33.0;;34.0;30.7;;;;;;
84740;SPS30;74970;47.924;13.802;2024-03-06T09:57:13;31.8;;32.7;29.6;;;;;;
84740;SPS30;74970;47.924;13.802;2024-03-06T10:02:28;29.7;;30.0;28.0;;;;;;
84740;SPS30;74970;47.924;13.802;2024-03-06T10:07:13;31.8;;32.2;30.0;;;;;;
84740;SPS30;74970;47.924;13.802;2024-03-06T10:12:13;33.1;;33.9;31.0;;;;;;
84740;SPS30;74970;47.924;13.802;2024-03-06T10:17:13;31.3;;31.3;29.8;;;;;;
84740;SPS30;74970;47.924;13.802;2024-03-06T10:22:13;30.2;;30.5;28.6;;;;;;
84740;SPS30;74970;47.924;13.802;2024-03-06T10:27:15;31.5;;32.4;29.4;;;;;;
84740;SPS30;74970;47.924;13.802;2024-03-06T10:32:16;32.6;;32.9;30.9;;;;;;
84740;SPS30;74970;47.924;13.802;2024-03-06T10:37:13;30.1;;30.8;28.1;;;;;;
84740;SPS30;74970;47.924;13.802;2024-03-06T10:42:13;30.4;;31.4;28.3;;;;;;
84740;SPS30;74970;47.924;13.802;2024-03-06T10:47:13;29.5;;29.7;27.9;;;;;;
84740;SPS30;74970;47.924;13.802;2024-03-06T10:52:13;30.6;;31.2;28.7;;;;;;
84740;SPS30;74970;47.924;13.802;2024-03-06T10:57:13;29.9;;31.1;27.6;;;;;;
84740;SPS30;74970;47.924;13.802;2024-03-06T11:02:13;29.4;;30.5;27.2;;;;;;
84740;SPS30;74970;47.924;13.802;2024-03-06T11:07:13;27.6;;28.1;25.9;;;;;;
84740;SPS30;74970;47.924;13.802;2024-03-06T11:12:13;26.2;;27.2;24.2;;;;;;
84740;SPS30;74970;47.924;13.802;2024-03-06T11:17:13;26.9;;26.9;25.7;;;;;;
84740;SPS30;74970;47.924;13.802;2024-03-06T11:22:13;26.5;;27.0;24.9;;;;;;
84740;SPS30;74970;47.924;13.802;2024-03-06T11:27:13;27.0;;28.0;25.0;;;;;;
84740;SPS30;74970;47.924;13.802;2024-03-06T11:32:13;25.3;;26.4;23.3;;;;;;
84740;SPS30;74970;47.924;13.802;2024-03-06T11:37:13;23.7;;23.9;22.4;;;;;;
84740;SPS30;74970;47.924;13.802;2024-03-06T11:42:13;25.1;;25.4;23.7;;;;;;
84740;SPS30;74970;47.924;13.802;2024-03-06T11:47:13;23.6;;23.6;22.4;;;;;;
84740;SPS30;74970;47.924;13.802;2024-03-06T11:52:13;24.1;;24.3;22.8;;;;;;
84740;SPS30;74970;47.924;13.802;2024-03-06T11:57:13;25.1;;25.9;23.4;;;;;;
84740;SPS30;74970;47.924;13.802;2024-03-06T12:02:13;25.7;;25.8;24.4;;;;;;
84740;SPS30;74970;47.924;13.802;2024-03-06T12:07:13;24.1;;24.5;22.7;;;;;;
84740;SPS30;74970;47.924;13.802;2024-03-06T12:12:13;24.8;;25.6;23.0;;;;;;
84740;SPS30;74970;47.924;13.802;2024-03-06T12:17:13;25.1;;26.1;23.3;;;;;;
84740;SPS30;74970;47.924;13.802;2024-03-06T12:22:13;23.8;;24.3;22.3;;;;;;
84740;SPS30;74970;47.924;13.802;2024-03-06T12:27:13;24.1;;24.5;22.7;;;;;;
84740;SPS30;74970;47.924;13.802;2024-03-06T12:32:16;24.3;;25.0;22.6;;;;;;
84740;SPS30;74970;47.924;13.802;2024-03-06T12:37:13;22.5;;22.6;21.5;;;;;;
84740;SPS30;74970;47.924;13.802;2024-03-06T12:42:13;23.9;;24.8;22.0;;;;;;
84740;SPS30;74970;47.924;13.802;2024-03-06T12:47:13;23.1;;23.1;22.0;;;;;;
84740;SPS30;74970;47.924;13.802;2024-03-06T12:52:13;23.1;;23.1;22.0;;;;;;
84740;SPS30;74970;47.924;13.802;2024-03-06T12:57:13;23.7;;23.7;22.6;;;;;;
84740;SPS30;74970;47.924;13.802;2024-03-06T13:02:13;24.0;;24.0;22.9;;;;;;
84740;SPS30;74970;47.924;13.802;2024-03-06T13:07:13;23.5;;23.5;22.4;;;;;;
84740;SPS30;74970;47.924;13.802;2024-03-06T13:12:13;24.0;;24.1;22.7;;;;;;
84740;SPS30;74970;47.924;13.802;2024-03-06T13:17:13;23.7;;23.7;22.6;;;;;;
84740;SPS30;74970;47.924;13.802;2024-03-06T13:22:14;22.4;;22.6;21.2;;;;;;
84740;SPS30;74970;47.924;13.802;2024-03-06T13:27:13;23.7;;24.0;22.3;;;;;;
84740;SPS30;74970;47.924;13.802;2024-03-06T13:32:13;22.6;;23.2;21.2;;;;;;
84740;SPS30;74970;47.924;13.802;2024-03-06T13:37:13;21.8;;21.8;20.8;;;;;;
84740;SPS30;74970;47.924;13.802;2024-03-06T13:42:13;23.1;;24.0;21.4;;;;;;
84740;SPS30;74970;47.924;13.802;2024-03-06T13:47:14;23.3;;24.3;21.5;;;;;;
84740;SPS30;74970;47.924;13.802;2024-03-06T13:52:13;23.4;;23.4;22.3;;;;;;
84740;SPS30;74970;47.924;13.802;2024-03-06T13:57:13;23.3;;24.1;21.7;;;;;;
84740;SPS30;74970;47.924;13.802;2024-03-06T14:02:13;23.5;;23.5;22.4;;;;;;
84740;SPS30;74970;47.924;13.802;2024-03-06T14:07:13;21.6;;21.6;20.6;;;;;;
84740;SPS30;74970;47.924;13.802;2024-03-06T14:12:13;21.8;;22.4;20.4;;;;;;
84740;SPS30;74970;47.924;13.802;2024-03-06T14:17:13;21.7;;21.8;20.7;;;;;;
84740;SPS30;74970;47.924;13.802;2024-03-06T14:22:13;23.1;;23.1;22.0;;;;;;
84740;SPS30;74970;47.924;13.802;2024-03-06T14:27:13;22.9;;23.8;21.2;;;;;;
84740;SPS30;74970;47.924;13.802;2024-03-06T14:32:13;22.2;;22.2;21.2;;;;;;
84740;SPS30;74970;47.924;13.802;2024-03-06T14:37:13;21.0;;21.0;20.0;;;;;;
84740;SPS30;74970;47.924;13.802;2024-03-06T14:42:13;21.9;;22.6;20.3;;;;;;
84740;SPS30;74970;47.924;13.802;2024-03-06T14:47:13;21.1;;21.1;20.1;;;;;;
84740;SPS30;74970;47.924;13.802;2024-03-06T14:52:13;20.4;;20.4;19.4;;;;;;
84740;SPS30;74970;47.924;13.802;2024-03-06T14:57:13;21.5;;22.1;20.0;;;;;;
84740;SPS30;74970;47.924;13.802;2024-03-06T15:02:13;21.3;;21.7;20.0;;;;;;
84740;SPS30;74970;47.924;13.802;2024-03-06T15:07:13;20.2;;20.2;19.2;;;;;;
84740;SPS30;74970;47.924;13.802;2024-03-06T15:12:13;20.5;;20.5;19.6;;;;;;
84740;SPS30;74970;47.924;13.802;2024-03-06T15:17:13;20.4;;20.9;19.1;;;;;;
84740;SPS30;74970;47.924;13.802;2024-03-06T15:22:13;20.8;;21.1;19.5;;;;;;
84740;SPS30;74970;47.924;13.802;2024-03-06T15:27:15;20.0;;20.0;19.0;;;;;;
84740;SPS30;74970;47.924;13.802;2024-03-06T15:32:13;19.6;;20.1;18.3;;;;;;
84740;SPS30;74970;47.924;13.802;2024-03-06T15:37:13;18.9;;18.9;18.0;;;;;;
84740;SPS30;74970;47.924;13.802;2024-03-06T15:42:13;27.2;;27.8;25.6;;;;;;
84740;SPS30;74970;47.924;13.802;2024-03-06T15:47:13;21.1;;21.3;20.0;;;;;;
84740;SPS30;74970;47.924;13.802;2024-03-06T15:52:13;21.7;;22.8;19.9;;;;;;
84740;SPS30;74970;47.924;13.802;2024-03-06T15:57:13;20.8;;20.8;19.8;;;;;;
84740;SPS30;74970;47.924;13.802;2024-03-06T16:02:13;20.5;;21.3;18.9;;;;;;
84740;SPS30;74970;47.924;13.802;2024-03-06T16:07:13;21.8;;21.8;20.8;;;;;;
84740;SPS30;74970;47.924;13.802;2024-03-06T16:12:13;21.8;;21.8;20.8;;;;;;
84740;SPS30;74970;47.924;13.802;2024-03-06T16:17:13;21.6;;22.4;19.9;;;;;;
84740;SPS30;74970;47.924;13.802;2024-03-06T16:22:13;21.4;;21.5;20.4;;;;;;
84740;SPS30;74970;47.924;13.802;2024-03-06T16:27:13;22.0;;22.8;20.3;;;;;;
84740;SPS30;74970;47.924;13.802;2024-03-06T16:32:13;21.3;;22.0;19.7;;;;;;
84740;SPS30;74970;47.924;13.802;2024-03-06T16:37:13;21.5;;21.7;20.5;;;;;;
84740;SPS30;74970;47.924;13.802;2024-03-06T16:42:13;22.7;;22.7;21.6;;;;;;
84740;SPS30;74970;47.924;13.802;2024-03-06T16:47:13;22.5;;22.5;21.4;;;;;;
84740;SPS30;74970;47.924;13.802;2024-03-06T16:52:13;24.1;;24.1;23.0;;;;;;
84740;SPS30;74970;47.924;13.802;2024-03-06T16:57:13;25.0;;25.4;23.5;;;;;;
84740;SPS30;74970;47.924;13.802;2024-03-06T17:02:13;22.6;;23.3;21.0;;;;;;
84740;SPS30;74970;47.924;13.802;2024-03-06T17:07:13;24.0;;24.7;22.4;;;;;;
84740;SPS30;74970;47.924;13.802;2024-03-06T17:12:13;23.5;;23.5;22.5;;;;;;
84740;SPS30;74970;47.924;13.802;2024-03-06T17:17:13;25.0;;25.9;23.1;;;;;;
84740;SPS30;74970;47.924;13.802;2024-03-06T17:22:13;23.7;;23.7;22.6;;;;;;
84740;SPS30;74970;47.924;13.802;2024-03-06T17:27:13;24.2;;24.2;23.0;;;;;;
84740;SPS30;74970;47.924;13.802;2024-03-06T17:32:13;24.0;;24.3;22.6;;;;;;
84740;SPS30;74970;47.924;13.802;2024-03-06T17:37:13;25.0;;25.5;23.4;;;;;;
84740;SPS30;74970;47.924;13.802;2024-03-06T17:42:13;25.8;;26.3;24.2;;;;;;
84740;SPS30;74970;47.924;13.802;2024-03-06T17:47:13;24.6;;24.6;23.4;;;;;;
84740;SPS30;74970;47.924;13.802;2024-03-06T17:52:13;26.8;;27.3;25.2;;;;;;
84740;SPS30;74970;47.924;13.802;2024-03-06T17:57:13;26.6;;27.4;24.8;;;;;;
84740;SPS30;74970;47.924;13.802;2024-03-06T18:02:13;28.1;;28.7;26.3;;;;;;
84740;SPS30;74970;47.924;13.802;2024-03-06T18:07:13;30.6;;31.4;28.5;;;;;;
84740;SPS30;74970;47.924;13.802;2024-03-06T18:12:13;26.7;;26.7;25.5;;;;;;
84740;SPS30;74970;47.924;13.802;2024-03-06T18:17:13;28.0;;28.7;26.2;;;;;;
84740;SPS30;74970;47.924;13.802;2024-03-06T18:22:13;27.6;;28.1;25.9;;;;;;
84740;SPS30;74970;47.924;13.802;2024-03-06T18:27:13;35.5;;36.5;33.1;;;;;;
84740;SPS30;74970;47.924;13.802;2024-03-06T18:32:13;40.1;;40.9;37.7;;;;;;
84740;SPS30;74970;47.924;13.802;2024-03-06T18:37:13;40.1;;41.2;37.4;;;;;;
84740;SPS30;74970;47.924;13.802;2024-03-06T18:42:13;37.3;;38.7;34.4;;;;;;
84740;SPS30;74970;47.924;13.802;2024-03-06T18:47:13;30.3;;31.1;28.2;;;;;;
84740;SPS30;74970;47.924;13.802;2024-03-06T18:52:13;44.4;;45.0;41.9;;;;;;
84740;SPS30;74970;47.924;13.802;2024-03-06T18:57:13;32.2;;33.2;29.9;;;;;;
84740;SPS30;74970;47.924;13.802;2024-03-06T19:02:13;29.0;;29.5;27.3;;;;;;
84740;SPS30;74970;47.924;13.802;2024-03-06T19:07:13;24.2;;25.1;22.5;;;;;;
84740;SPS30;74970;47.924;13.802;2024-03-06T19:12:13;26.2;;26.2;25.0;;;;;;
84740;SPS30;74970;47.924;13.802;2024-03-06T19:17:13;30.7;;30.9;29.1;;;;;;
84740;SPS30;74970;47.924;13.802;2024-03-06T19:22:13;27.5;;27.5;26.2;;;;;;
84740;SPS30;74970;47.924;13.802;2024-03-06T19:27:13;27.1;;27.6;25.5;;;;;;
84740;SPS30;74970;47.924;13.802;2024-03-06T19:32:13;26.8;;26.8;25.6;;;;;;
84740;SPS30;74970;47.924;13.802;2024-03-06T19:37:13;25.9;;26.5;24.2;;;;;;
84740;SPS30;74970;47.924;13.802;2024-03-06T19:42:13;27.8;;28.8;25.8;;;;;;
84740;SPS30;74970;47.924;13.802;2024-03-06T19:47:13;34.4;;35.3;32.2;;;;;;
84740;SPS30;74970;47.924;13.802;2024-03-06T19:52:13;32.3;;33.3;30.0;;;;;;
84740;SPS30;74970;47.924;13.802;2024-03-06T19:57:13;28.8;;29.7;26.7;;;;;;
84740;SPS30;74970;47.924;13.802;2024-03-06T20:02:13;28.7;;29.7;26.6;;;;;;
84740;SPS30;74970;47.924;13.802;2024-03-06T20:07:13;26.8;;27.8;24.9;;;;;;
84740;SPS30;74970;47.924;13.802;2024-03-06T20:12:13;28.6;;29.1;26.8;;;;;;
84740;SPS30;74970;47.924;13.802;2024-03-06T20:17:13;31.5;;32.9;28.9;;;;;;
84740;SPS30;74970;47.924;13.802;2024-03-06T20:22:13;31.1;;31.6;29.3;;;;;;
84740;SPS30;74970;47.924;13.802;2024-03-06T20:27:13;32.2;;33.0;30.0;;;;;;
84740;SPS30;74970;47.924;13.802;2024-03-06T20:32:13;34.1;;35.3;31.6;;;;;;
84740;SPS30;74970;47.924;13.802;2024-03-06T20:37:13;32.2;;33.0;30.0;;;;;;
84740;SPS30;74970;47.924;13.802;2024-03-06T20:42:13;32.2;;32.5;30.6;;;;;;
84740;SPS30;74970;47.924;13.802;2024-03-06T20:47:13;31.3;;31.9;29.4;;;;;;
84740;SPS30;74970;47.924;13.802;2024-03-06T20:52:13;42.6;;44.3;39.3;;;;;;
84740;SPS30;74970;47.924;13.802;2024-03-06T20:57:13;30.8;;31.5;28.8;;;;;;
84740;SPS30;74970;47.924;13.802;2024-03-06T21:02:13;31.5;;32.6;29.1;;;;;;
84740;SPS30;74970;47.924;13.802;2024-03-06T21:07:13;27.7;;27.7;26.4;;;;;;
84740;SPS30;74970;47.924;13.802;2024-03-06T21:12:14;26.5;;26.7;25.1;;;;;;
84740;SPS30;74970;47.924;13.802;2024-03-06T21:17:13;26.4;;26.4;25.1;;;;;;
84740;SPS30;74970;47.924;13.802;2024-03-06T21:22:13;31.1;;31.4;29.5;;;;;;
84740;SPS30;74970;47.924;13.802;2024-03-06T21:27:13;29.6;;29.6;28.3;;;;;;
84740;SPS30;74970;47.924;13.802;2024-03-06T21:32:13;28.0;;28.0;26.6;;;;;;
84740;SPS30;74970;47.924;13.802;2024-03-06T21:37:13;28.9;;29.6;27.0;;;;;;
84740;SPS30;74970;47.924;13.802;2024-03-06T21:42:13;27.4;;27.5;26.1;;;;;;
84740;SPS30;74970;47.924;13.802;2024-03-06T21:47:13;27.5;;27.6;26.2;;;;;;
84740;SPS30;74970;47.924;13.802;2024-03-06T21:52:13;25.2;;25.2;24.0;;;;;;
84740;SPS30;74970;47.924;13.802;2024-03-06T21:57:13;27.6;;28.1;25.9;;;;;;
84740;SPS30;74970;47.924;13.802;2024-03-06T22:02:13;28.8;;28.9;27.4;;;;;;
84740;SPS30;74970;47.924;13.802;2024-03-06T22:07:13;26.6;;27.2;25.0;;;;;;
84740;SPS30;74970;47.924;13.802;2024-03-06T22:12:13;26.1;;26.1;24.9;;;;;;
84740;SPS30;74970;47.924;13.802;2024-03-06T22:17:13;26.4;;26.4;25.1;;;;;;
84740;SPS30;74970;47.924;13.802;2024-03-06T22:22:13;26.9;;27.3;25.3;;;;;;
84740;SPS30;74970;47.924;13.802;2024-03-06T22:27:13;28.6;;29.3;26.7;;;;;;
84740;SPS30;74970;47.924;13.802;2024-03-06T22:32:13;28.3;;28.8;26.6;;;;;;
84740;SPS30;74970;47.924;13.802;2024-03-06T22:37:13;28.6;;28.6;27.3;;;;;;
84740;SPS30;74970;47.924;13.802;2024-03-06T22:42:13;28.8;;29.2;27.1;;;;;;
84740;SPS30;74970;47.924;13.802;2024-03-06T22:47:13;27.2;;27.8;25.5;;;;;;
84740;SPS30;74970;47.924;13.802;2024-03-06T22:52:13;28.0;;28.4;26.4;;;;;;
84740;SPS30;74970;47.924;13.802;2024-03-06T22:57:13;33.4;;34.5;31.1;;;;;;
84740;SPS30;74970;47.924;13.802;2024-03-06T23:02:13;31.5;;32.0;29.6;;;;;;
84740;SPS30;74970;47.924;13.802;2024-03-06T23:07:13;30.5;;31.2;28.6;;;;;;
84740;SPS30;74970;47.924;13.802;2024-03-06T23:12:13;27.8;;27.8;26.5;;;;;;
84740;SPS30;74970;47.924;13.802;2024-03-06T23:17:13;28.7;;29.1;27.1;;;;;;
84740;SPS30;74970;47.924;13.802;2024-03-06T23:22:13;28.9;;29.2;27.3;;;;;;
84740;SPS30;74970;47.924;13.802;2024-03-06T23:27:13;29.9;;29.9;28.5;;;;;;
84740;SPS30;74970;47.924;13.802;2024-03-06T23:32:13;29.1;;29.3;27.6;;;;;;
84740;SPS30;74970;47.924;13.802;2024-03-06T23:37:13;30.7;;31.4;28.6;;;;;;
84740;SPS30;74970;47.924;13.802;2024-03-06T23:42:13;30.7;;30.7;29.2;;;;;;
84740;SPS30;74970;47.924;13.802;2024-03-06T23:47:13;29.9;;30.0;28.5;;;;;;
84740;SPS30;74970;47.924;13.802;2024-03-06T23:52:13;29.9;;30.2;28.3;;;;;;
84740;SPS30;74970;47.924;13.802;2024-03-06T23:57:13;28.4;;28.8;26.7;;;;;;
